Time;durP1;ratioP1;P1;durP2;ratioP2;P2;SDS_P1;SDS_P2;PMS_P1;PMS_P2;Temp;Humidity;BMP_temperature;BMP_pressure;BME280_temperature;BME280_humidity;BME280_pressure;Samples;Min_cycle;Max_cycle;Signal;HPM_P1;HPM_P2
2021/09/12 00:00:50;;;;;;;;;12.00;8.00;;;;;25.43;42.06;101085.41;6190956;22;45259;-85
2021/09/12 00:03:15;;;;;;;;;12.75;11.25;;;;;25.46;41.58;101087.09;6190601;22;45201;-85
2021/09/12 00:05:40;;;;;;;;;10.50;9.00;;;;;25.39;42.37;101081.16;6191070;22;45211;-86
2021/09/12 00:08:09;;;;;;;;;10.00;9.25;;;;;25.39;41.85;101082.97;6191459;22;45504;-85
2021/09/12 00:10:38;;;;;;;;;11.25;10.50;;;;;25.40;41.97;101079.34;6216581;22;45226;-85
2021/09/12 00:13:04;;;;;;;;;12.25;10.75;;;;;25.45;42.05;101094.19;6191002;22;45197;-85
2021/09/12 00:15:29;;;;;;;;;15.25;10.50;;;;;25.32;42.01;101072.56;6190855;22;45494;-85
2021/09/12 00:17:55;;;;;;;;;10.00;10.00;;;;;25.36;41.76;101073.25;6216205;22;46001;-85
2021/09/12 00:20:20;;;;;;;;;11.00;10.00;;;;;25.32;41.80;101069.88;6215858;22;45443;-85
2021/09/12 00:22:45;;;;;;;;;9.50;9.00;;;;;25.33;41.74;101074.28;6191144;22;45310;-86
2021/09/12 00:25:11;;;;;;;;;10.50;9.75;;;;;25.39;41.71;101093.66;6216010;22;45255;-86
2021/09/12 00:27:36;;;;;;;;;11.25;10.75;;;;;25.35;41.94;101080.41;6190825;22;46545;-85
2021/09/12 00:30:03;;;;;;;;;9.25;8.75;;;;;25.23;41.58;101070.31;6166029;22;45209;-85
2021/09/12 00:32:28;;;;;;;;;9.25;9.25;;;;;25.21;41.78;101068.66;6190619;22;45213;-85
2021/09/12 00:34:54;;;;;;;;;11.25;10.00;;;;;25.27;41.84;101074.56;6190804;22;45239;-85
2021/09/12 00:37:20;;;;;;;;;9.75;9.25;;;;;25.20;42.20;101067.78;6216754;22;45310;-85
2021/09/12 00:39:45;;;;;;;;;11.75;11.00;;;;;25.27;41.64;101076.34;6216342;22;45448;-85
2021/09/12 00:42:22;;;;;;;;;10.25;8.75;;;;;25.27;41.57;101073.69;6191091;22;45129;-85
2021/09/12 00:44:48;;;;;;;;;11.00;10.50;;;;;25.26;41.47;101075.50;6191588;22;45357;-85
2021/09/12 00:47:13;;;;;;;;;12.00;10.00;;;;;25.25;41.98;101070.22;6190412;22;46869;-85
2021/09/12 00:49:39;;;;;;;;;11.00;9.00;;;;;25.22;42.02;101071.25;6190884;22;45774;-85
2021/09/12 00:52:15;;;;;;;;;9.50;8.50;;;;;25.31;41.93;101086.84;6191323;22;45389;-85
2021/09/12 00:54:40;;;;;;;;;10.75;9.25;;;;;25.25;41.69;101076.44;6190305;22;45596;-85
2021/09/12 00:57:09;;;;;;;;;11.00;10.50;;;;;25.29;42.02;101082.53;6191033;22;45243;-85
2021/09/12 00:59:39;;;;;;;;;9.00;9.00;;;;;25.23;41.97;101072.13;6192338;22;45182;-85
2021/09/12 01:02:05;;;;;;;;;9.00;8.25;;;;;25.24;41.98;101073.84;6191422;22;45331;-86
2021/09/12 01:04:34;;;;;;;;;10.75;10.50;;;;;25.29;41.87;101080.72;6191248;22;45402;-86
2021/09/12 01:07:00;;;;;;;;;12.00;8.50;;;;;25.23;42.08;101072.97;6190915;22;47064;-86
2021/09/12 01:09:25;;;;;;;;;10.00;9.00;;;;;25.30;42.24;101079.78;6165376;22;45234;-86
2021/09/12 01:11:51;;;;;;;;;12.25;10.50;;;;;25.27;41.63;101068.34;6190884;22;57061;-86
2021/09/12 01:14:29;;;;;;;;;9.00;8.50;;;;;25.30;41.76;101074.44;6194114;22;45293;-86
2021/09/12 01:16:55;;;;;;;;;12.00;11.00;;;;;25.28;42.08;101072.75;6194529;22;46516;-86
2021/09/12 01:19:23;;;;;;;;;9.75;8.50;;;;;25.22;41.85;101059.69;6217475;22;45305;-86
2021/09/12 01:21:57;;;;;;;;;9.75;9.75;;;;;25.28;41.66;101065.63;6217035;22;45259;-87
2021/09/12 01:24:28;;;;;;;;;8.50;8.00;;;;;25.27;41.61;101058.53;6216738;22;45643;-86
2021/09/12 01:27:05;;;;;;;;;12.25;10.50;;;;;25.15;41.77;101043.09;6216214;22;45358;-86
2021/09/12 01:29:30;;;;;;;;;11.25;10.00;;;;;25.21;41.47;101052.63;6191431;22;45492;-86
2021/09/12 01:31:56;;;;;;;;;8.00;8.00;;;;;25.24;41.87;101066.69;6191415;22;45314;-86
2021/09/12 01:34:21;;;;;;;;;10.00;9.00;;;;;25.26;41.46;101072.81;6190755;22;45462;-86
2021/09/12 01:36:46;;;;;;;;;13.00;10.25;;;;;25.20;41.30;101056.25;6190099;22;56010;-86
2021/09/12 01:39:12;;;;;;;;;9.75;9.25;;;;;25.18;41.82;101064.28;6189628;22;45315;-86
2021/09/12 01:41:37;;;;;;;;;11.75;10.25;;;;;25.19;41.45;101062.50;6190477;22;45210;-86
2021/09/12 01:44:03;;;;;;;;;10.75;9.75;;;;;25.11;41.62;101049.50;6190992;22;45112;-86
2021/09/12 01:46:29;;;;;;;;;10.75;10.25;;;;;25.17;41.81;101062.56;6165461;22;47367;-86
2021/09/12 01:48:56;;;;;;;;;11.50;11.50;;;;;25.15;41.54;101053.75;6190414;22;45179;-86
2021/09/12 01:51:22;;;;;;;;;10.25;9.00;;;;;25.06;42.20;101041.69;6165676;22;45353;-86
2021/09/12 01:53:48;;;;;;;;;11.00;9.50;;;;;25.10;41.51;101050.44;6165233;22;45507;-86
2021/09/12 01:56:13;;;;;;;;;12.00;10.00;;;;;25.07;41.51;101043.44;6190025;22;47179;-86
2021/09/12 01:58:56;;;;;;;;;9.00;9.00;;;;;25.08;41.76;101049.63;6190668;22;45359;-87
2021/09/12 02:01:22;;;;;;;;;11.50;8.75;;;;;25.02;41.75;101036.53;6215846;22;46132;-86
2021/09/12 02:03:47;;;;;;;;;9.50;9.50;;;;;24.96;42.02;101039.50;6190624;22;45364;-86
2021/09/12 02:06:13;;;;;;;;;9.75;8.75;;;;;25.09;41.86;101056.72;6190419;22;46294;-86
2021/09/12 02:08:39;;;;;;;;;11.00;8.50;;;;;25.00;41.89;101043.75;6190100;22;45385;-86
2021/09/12 02:11:04;;;;;;;;;10.75;9.50;;;;;25.01;42.16;101053.50;6190198;22;45348;-86
2021/09/12 02:13:30;;;;;;;;;9.00;9.00;;;;;25.07;42.16;101063.94;6190435;22;45270;-86
2021/09/12 02:15:55;;;;;;;;;10.50;9.25;;;;;25.08;42.20;101063.00;6190460;22;45353;-86
2021/09/12 02:18:21;;;;;;;;;9.25;8.50;;;;;25.05;41.89;101057.81;6190428;22;45351;-86
2021/09/12 02:20:46;;;;;;;;;9.75;9.00;;;;;25.00;42.06;101054.44;6190028;22;45143;-86
2021/09/12 02:23:12;;;;;;;;;14.75;11.25;;;;;25.00;42.18;101049.94;6189710;22;45448;-86
2021/09/12 02:25:37;;;;;;;;;8.50;8.50;;;;;25.01;42.09;101056.16;6189365;22;47863;-86
2021/09/12 02:28:03;;;;;;;;;8.00;8.00;;;;;25.00;42.10;101060.63;6189764;22;45343;-86
2021/09/12 02:30:37;;;;;;;;;12.00;10.25;;;;;25.04;42.49;101070.28;6190173;22;45169;-85
2021/09/12 02:33:03;;;;;;;;;9.75;9.75;;;;;24.96;42.33;101067.06;6189632;22;45411;-86
2021/09/12 02:35:28;;;;;;;;;9.50;9.50;;;;;24.95;42.55;101064.47;6190473;22;46045;-86
2021/09/12 02:37:54;;;;;;;;;10.75;10.00;;;;;25.07;42.22;101079.97;6164684;22;45207;-86
2021/09/12 02:40:20;;;;;;;;;9.25;9.25;;;;;25.06;41.96;101072.88;6214254;22;45230;-86
2021/09/12 02:42:45;;;;;;;;;8.75;7.75;;;;;25.03;42.21;101067.69;6190252;22;45231;-86
2021/09/12 02:45:11;;;;;;;;;10.00;8.50;;;;;25.02;42.44;101068.56;6190391;22;46291;-86
2021/09/12 02:47:37;;;;;;;;;11.25;9.75;;;;;25.06;42.28;101080.91;6189881;22;45273;-86
2021/09/12 02:50:03;;;;;;;;;9.75;8.00;;;;;24.99;42.13;101063.38;6190459;22;45196;-86
2021/09/12 02:52:28;;;;;;;;;11.75;10.75;;;;;24.98;42.54;101059.84;6189833;22;45503;-86
2021/09/12 02:54:54;;;;;;;;;7.75;7.25;;;;;25.04;42.53;101061.41;6215337;22;45305;-86
2021/09/12 02:57:19;;;;;;;;;12.00;10.00;;;;;25.03;42.43;101059.69;6189866;22;45594;-86
2021/09/12 02:59:44;;;;;;;;;10.00;9.00;;;;;25.03;42.00;101063.22;6189765;22;45270;-86
2021/09/12 03:02:10;;;;;;;;;13.25;9.50;;;;;25.07;41.94;101061.25;6215309;22;45242;-86
2021/09/12 03:04:35;;;;;;;;;9.00;9.00;;;;;25.05;42.07;101058.66;6190251;22;45388;-86
2021/09/12 03:07:01;;;;;;;;;7.25;6.50;;;;;24.98;42.57;101056.31;6190123;22;48553;-86
2021/09/12 03:09:29;;;;;;;;;9.25;9.00;;;;;24.95;41.98;101051.97;6189921;22;45183;-86
2021/09/12 03:11:55;;;;;;;;;10.25;9.00;;;;;24.96;42.16;101058.19;6189462;22;49983;-86
2021/09/12 03:14:20;;;;;;;;;9.50;9.00;;;;;25.02;42.34;101058.81;6164260;22;46875;-86
2021/09/12 03:16:59;;;;;;;;;13.00;11.00;;;;;24.94;42.28;101044.06;6189327;22;45203;-86
2021/09/12 03:19:24;;;;;;;;;9.00;9.00;;;;;24.92;42.11;101049.44;6195157;22;45424;-86
2021/09/12 03:21:50;;;;;;;;;9.25;8.25;;;;;24.89;42.22;101041.56;6189390;22;45563;-86
2021/09/12 03:24:15;;;;;;;;;9.00;8.75;;;;;24.97;42.14;101063.47;6188899;22;48440;-86
2021/09/12 03:26:41;;;;;;;;;9.75;9.00;;;;;24.86;42.32;101040.88;6189043;22;45341;-87
2021/09/12 03:29:06;;;;;;;;;10.00;10.00;;;;;24.88;42.02;101055.00;6214594;22;45202;-86
2021/09/12 03:31:31;;;;;;;;;8.75;8.00;;;;;24.84;42.64;101040.91;6189379;22;45202;-86
2021/09/12 03:33:57;;;;;;;;;5.00;4.00;;;;;24.85;42.78;101033.75;6190043;22;47535;-86
2021/09/12 03:36:22;;;;;;;;;8.00;8.00;;;;;24.80;42.06;101034.84;6216840;22;45214;-86
2021/09/12 03:38:48;;;;;;;;;9.50;9.50;;;;;24.80;42.28;101050.88;6165598;22;45313;-86
2021/09/12 03:41:13;;;;;;;;;10.50;9.50;;;;;24.84;42.27;101064.06;6190144;22;45407;-86
2021/09/12 03:43:39;;;;;;;;;10.00;8.50;;;;;24.76;42.16;101051.97;6190929;22;46115;-86
2021/09/12 03:46:04;;;;;;;;;9.00;9.00;;;;;24.70;42.73;101043.34;6217855;22;45130;-86
2021/09/12 03:48:29;;;;;;;;;9.00;7.75;;;;;24.77;42.43;101055.50;6216628;22;45566;-86
2021/09/12 03:50:55;;;;;;;;;11.00;8.00;;;;;24.74;42.84;101044.94;6191247;22;45381;-87
2021/09/12 03:53:21;;;;;;;;;8.00;7.50;;;;;24.69;42.82;101042.47;6190638;22;47305;-86
2021/09/12 03:55:46;;;;;;;;;8.25;8.00;;;;;24.75;42.83;101052.84;6190862;22;45942;-86
2021/09/12 03:58:11;;;;;;;;;10.25;9.25;;;;;24.72;42.96;101047.66;6190709;22;45412;-87
2021/09/12 04:00:37;;;;;;;;;8.50;7.50;;;;;24.74;42.48;101051.13;6191508;22;45591;-87
2021/09/12 04:03:02;;;;;;;;;11.75;9.25;;;;;24.73;42.48;101048.53;6191220;22;46078;-86
2021/09/12 04:05:28;;;;;;;;;9.25;7.50;;;;;24.69;42.64;101044.28;6190986;22;45357;-86
2021/09/12 04:07:53;;;;;;;;;8.75;7.50;;;;;24.63;43.02;101031.19;6190129;22;53218;-86
2021/09/12 04:10:18;;;;;;;;;9.25;7.75;;;;;24.72;42.66;101053.00;6190763;22;45275;-87
2021/09/12 04:12:44;;;;;;;;;8.00;8.00;;;;;24.67;42.62;101041.69;6190696;22;45260;-87
2021/09/12 04:15:09;;;;;;;;;7.50;6.50;;;;;24.71;42.88;101048.59;6191042;22;45285;-87
2021/09/12 04:17:35;;;;;;;;;7.50;6.50;;;;;24.73;42.63;101052.06;6191352;22;45376;-87
2021/09/12 04:20:01;;;;;;;;;7.50;7.50;;;;;24.67;42.96;101033.69;6190735;22;45392;-88
2021/09/12 04:22:26;;;;;;;;;9.00;9.00;;;;;24.75;42.98;101052.00;6217235;22;47131;-86
2021/09/12 04:24:52;;;;;;;;;6.75;6.00;;;;;24.73;42.66;101032.53;6217267;22;45210;-86
2021/09/12 04:27:17;;;;;;;;;8.25;7.75;;;;;24.67;42.62;101027.44;6192120;22;45179;-86
2021/09/12 04:29:43;;;;;;;;;9.25;9.00;;;;;24.74;42.69;101048.47;6191397;22;45179;-86
2021/09/12 04:32:09;;;;;;;;;9.00;9.00;;;;;24.73;43.14;101033.38;6192125;22;48148;-86
2021/09/12 04:34:34;;;;;;;;;8.25;7.00;;;;;24.69;42.91;101039.81;6192879;22;45197;-86
2021/09/12 04:36:59;;;;;;;;;9.00;9.00;;;;;24.62;42.58;101025.00;6192339;22;45428;-86
2021/09/12 04:39:25;;;;;;;;;8.50;7.50;;;;;24.70;42.64;101038.00;6215674;22;54309;-86
2021/09/12 04:41:50;;;;;;;;;8.00;8.00;;;;;24.74;42.71;101052.94;6190640;22;47089;-86
2021/09/12 04:44:16;;;;;;;;;9.25;8.00;;;;;24.69;42.76;101039.81;6164345;22;55781;-86
2021/09/12 04:46:41;;;;;;;;;10.50;8.75;;;;;24.56;43.25;101024.41;6191023;22;45380;-86
2021/09/12 04:49:07;;;;;;;;;9.75;8.00;;;;;24.65;43.41;101046.19;6191299;22;45270;-86
2021/09/12 04:51:32;;;;;;;;;7.00;7.00;;;;;24.58;42.67;101039.41;6195915;22;45417;-87
2021/09/12 04:53:58;;;;;;;;;8.50;6.75;;;;;24.56;43.13;101043.94;6193743;22;45372;-86
2021/09/12 04:56:23;;;;;;;;;10.25;8.75;;;;;24.59;42.77;101054.50;6190859;22;45378;-87
2021/09/12 04:58:49;;;;;;;;;10.00;9.00;;;;;24.55;43.13;101046.69;6190584;22;45479;-87
2021/09/12 05:01:14;;;;;;;;;7.25;7.25;;;;;24.45;43.07;101035.56;6190577;22;47336;-87
2021/09/12 05:03:40;;;;;;;;;10.50;10.00;;;;;24.50;43.04;101038.91;6190625;22;45398;-86
2021/09/12 05:06:05;;;;;;;;;7.00;7.00;;;;;24.46;43.13;101043.47;6190788;22;45407;-87
2021/09/12 05:08:31;;;;;;;;;8.25;7.00;;;;;24.48;43.34;101046.94;6190997;22;45380;-87
2021/09/12 05:10:56;;;;;;;;;9.00;8.00;;;;;24.53;43.09;101060.09;6165167;22;46874;-87
2021/09/12 05:13:22;;;;;;;;;10.50;8.00;;;;;24.47;43.03;101050.56;6190369;22;45222;-88
2021/09/12 05:15:47;;;;;;;;;10.25;10.00;;;;;24.45;43.38;101051.56;6190445;22;48721;-87
2021/09/12 05:18:13;;;;;;;;;10.00;8.00;;;;;24.49;43.17;101058.47;6190470;22;45536;-86
2021/09/12 05:20:38;;;;;;;;;10.25;8.25;;;;;24.37;43.26;101035.88;6190699;22;45278;-86
2021/09/12 05:23:03;;;;;;;;;7.00;7.00;;;;;24.38;43.25;101039.41;6215881;22;45235;-88
2021/09/12 05:25:29;;;;;;;;;8.25;6.00;;;;;24.46;43.26;101055.97;6216172;22;45278;-88
2021/09/12 05:27:55;;;;;;;;;5.50;5.50;;;;;24.31;43.58;101027.22;6190778;22;45116;-87
2021/09/12 05:30:20;;;;;;;;;9.00;7.75;;;;;24.41;43.58;101047.28;6215340;22;46968;-87
2021/09/12 05:32:46;;;;;;;;;7.50;7.50;;;;;24.35;43.82;101039.56;6190421;22;45174;-87
2021/09/12 05:35:14;;;;;;;;;8.25;6.50;;;;;24.35;43.37;101045.75;6191283;22;45520;-87
2021/09/12 05:37:40;;;;;;;;;9.50;7.75;;;;;24.27;43.72;101042.50;6190347;22;45619;-86
2021/09/12 05:40:06;;;;;;;;;8.25;8.00;;;;;24.30;43.60;101045.03;6190163;22;46391;-86
2021/09/12 05:42:31;;;;;;;;;8.25;7.25;;;;;24.24;43.32;101032.84;6190255;22;45792;-87
2021/09/12 05:44:57;;;;;;;;;10.25;7.25;;;;;24.34;43.86;101060.03;6190353;22;45187;-87
2021/09/12 05:47:22;;;;;;;;;7.75;7.50;;;;;24.35;43.27;101056.44;6190231;22;45477;-87
2021/09/12 05:49:48;;;;;;;;;7.25;7.25;;;;;24.30;43.63;101042.38;6190126;22;46972;-86
2021/09/12 05:52:15;;;;;;;;;8.00;6.25;;;;;24.34;43.18;101048.50;6190017;22;45325;-86
2021/09/12 05:54:41;;;;;;;;;8.00;7.00;;;;;24.40;43.29;101059.75;6190626;22;45187;-86
2021/09/12 05:57:06;;;;;;;;;10.50;8.75;;;;;24.37;43.42;101053.69;6164961;22;45389;-85
2021/09/12 05:59:32;;;;;;;;;10.75;8.75;;;;;24.42;43.62;101057.03;6215547;22;49481;-86
2021/09/12 06:01:57;;;;;;;;;9.25;9.25;;;;;24.37;43.75;101053.69;6190892;22;45395;-87
2021/09/12 06:04:23;;;;;;;;;12.00;8.75;;;;;24.36;43.65;101055.50;6190442;22;45406;-87
2021/09/12 06:06:48;;;;;;;;;12.50;10.00;;;;;24.40;43.29;101056.22;6165217;22;45444;-87
2021/09/12 06:09:14;;;;;;;;;10.75;10.00;;;;;24.29;43.96;101040.63;6189946;22;46776;-87
2021/09/12 06:11:39;;;;;;;;;6.00;6.00;;;;;24.34;43.46;101056.50;6190698;22;45389;-87
2021/09/12 06:14:05;;;;;;;;;12.50;12.50;;;;;24.39;43.80;101063.34;6215478;22;45522;-87
2021/09/12 06:16:30;;;;;;;;;10.25;9.00;;;;;24.32;43.41;101051.19;6190322;22;45376;-87
2021/09/12 06:18:57;;;;;;;;;9.25;9.25;;;;;24.45;43.61;101072.91;6191575;22;45369;-85
2021/09/12 06:21:23;;;;;;;;;9.75;9.75;;;;;24.45;44.14;101073.78;6200495;22;45254;-88
2021/09/12 06:23:48;;;;;;;;;10.75;9.75;;;;;24.36;43.79;101063.50;6222011;22;45225;-88
2021/09/12 06:26:14;;;;;;;;;7.75;7.75;;;;;24.31;43.99;101048.56;6190119;22;45598;-86
2021/09/12 06:28:39;;;;;;;;;10.00;10.00;;;;;24.41;43.96;101073.94;6216341;22;46134;-86
2021/09/12 06:31:04;;;;;;;;;13.00;11.00;;;;;24.41;43.44;101071.28;6191599;22;45521;-86
2021/09/12 06:33:30;;;;;;;;;8.00;7.25;;;;;24.45;43.60;101073.78;6191356;22;45319;-86
2021/09/12 06:35:55;;;;;;;;;9.75;8.00;;;;;24.44;43.57;101071.19;6165437;22;45509;-86
2021/09/12 06:38:21;;;;;;;;;12.00;9.00;;;;;24.54;43.49;101077.84;6190903;22;45825;-87
2021/09/12 06:40:46;;;;;;;;;12.00;11.25;;;;;24.53;43.52;101060.09;6190372;22;45436;-86
2021/09/12 06:43:12;;;;;;;;;12.25;11.25;;;;;24.52;43.41;101059.22;6190835;22;45668;-87
2021/09/12 06:45:37;;;;;;;;;11.25;10.00;;;;;24.59;43.18;101059.84;6191267;22;45336;-86
2021/09/12 06:48:03;;;;;;;;;12.75;10.25;;;;;24.65;43.01;101058.69;6190464;22;46936;-87
2021/09/12 06:50:29;;;;;;;;;10.75;9.75;;;;;24.79;42.83;101075.84;6193894;22;45250;-86
2021/09/12 06:52:55;;;;;;;;;10.50;9.75;;;;;24.79;42.71;101072.31;6169223;22;45359;-85
2021/09/12 06:55:20;;;;;;;;;13.25;10.25;;;;;24.78;42.88;101060.75;6189724;22;45404;-87
2021/09/12 06:57:46;;;;;;;;;12.00;10.75;;;;;24.89;42.33;101080.75;6189732;22;47872;-85
2021/09/12 07:00:11;;;;;;;;;10.50;10.25;;;;;24.87;42.73;101064.81;6189792;22;45675;-87
2021/09/12 07:02:38;;;;;;;;;11.75;11.75;;;;;24.87;42.22;101050.59;6189915;22;45185;-86
2021/09/12 07:05:04;;;;;;;;;9.00;9.00;;;;;24.97;42.07;101059.91;6190570;22;45119;-86
2021/09/12 07:07:30;;;;;;;;;13.00;12.25;;;;;25.04;42.28;101066.75;6189799;22;45594;-86
2021/09/12 07:09:55;;;;;;;;;9.75;8.75;;;;;25.00;42.14;101051.75;6191361;22;45201;-86
2021/09/12 07:12:21;;;;;;;;;10.75;10.25;;;;;25.03;42.31;101054.34;6166155;22;45168;-87
2021/09/12 07:14:48;;;;;;;;;12.25;11.00;;;;;25.11;42.08;101062.88;6216015;22;45367;-85
2021/09/12 07:17:14;;;;;;;;;10.75;8.75;;;;;25.16;42.11;101063.50;6216120;22;56854;-86
2021/09/12 07:19:39;;;;;;;;;10.00;10.00;;;;;25.20;41.82;101067.78;6216770;22;45394;-86
2021/09/12 07:22:05;;;;;;;;;10.00;8.75;;;;;25.23;41.52;101059.63;6216880;22;45376;-86
2021/09/12 07:24:30;;;;;;;;;11.25;9.75;;;;;25.30;41.96;101069.09;6215724;22;45942;-86
2021/09/12 07:26:56;;;;;;;;;7.75;7.00;;;;;25.30;41.82;101054.88;6216261;22;45423;-86
2021/09/12 07:29:22;;;;;;;;;11.00;11.00;;;;;25.38;41.99;101060.72;6216566;22;45221;-85
2021/09/12 07:31:47;;;;;;;;;8.00;7.50;;;;;25.44;41.83;101072.91;6216406;22;45225;-84
2021/09/12 07:34:13;;;;;;;;;9.00;9.00;;;;;25.41;41.83;101065.03;6215824;22;45419;-85
2021/09/12 07:36:38;;;;;;;;;9.50;9.25;;;;;25.52;41.33;101074.28;6218078;22;45202;-86
2021/09/12 07:39:04;;;;;;;;;13.25;8.75;;;;;25.55;41.54;101070.59;6215335;22;45490;-87
2021/09/12 07:41:29;;;;;;;;;10.00;9.25;;;;;25.53;41.54;101056.44;6191475;22;45177;-85
2021/09/12 07:44:00;;;;;;;;;16.75;13.00;;;;;25.63;41.83;101068.44;6191298;22;45175;-86
2021/09/12 07:46:26;;;;;;;;;16.25;14.75;;;;;25.63;41.58;101065.75;6217346;22;45413;-85
2021/09/12 07:48:51;;;;;;;;;10.00;10.00;;;;;25.69;41.40;101078.81;6190941;22;45233;-86
2021/09/12 07:51:20;;;;;;;;;12.00;9.25;;;;;25.70;41.04;101072.53;6222693;22;45656;-86
2021/09/12 07:53:45;;;;;;;;;12.25;12.00;;;;;25.67;41.21;101067.34;6193444;22;45393;-85
2021/09/12 07:56:11;;;;;;;;;8.00;7.75;;;;;25.72;41.38;101076.03;6217105;22;46496;-86
2021/09/12 07:58:41;;;;;;;;;7.75;7.25;;;;;25.76;41.56;101074.94;6216494;22;45229;-86
2021/09/12 08:01:07;;;;;;;;;12.50;8.00;;;;;25.78;41.25;101066.84;6191977;22;45225;-85
2021/09/12 08:03:32;;;;;;;;;8.25;8.00;;;;;25.79;40.91;101063.22;6192750;22;45204;-86
2021/09/12 08:06:05;;;;;;;;;8.75;8.00;;;;;25.85;40.77;101073.63;6191315;22;48422;-86
2021/09/12 08:08:33;;;;;;;;;9.25;8.00;;;;;25.72;40.89;101054.66;6217643;22;45319;-85
2021/09/12 08:11:02;;;;;;;;;12.00;9.00;;;;;25.78;41.03;101069.50;6191086;22;45250;-87
2021/09/12 08:13:30;;;;;;;;;11.00;10.00;;;;;25.83;41.00;101070.16;6167657;22;45274;-86
2021/09/12 08:16:13;;;;;;;;;6.00;6.00;;;;;25.79;41.00;101061.41;6191741;22;46901;-87
2021/09/12 08:19:02;;;;;;;;;6.50;5.50;;;;;25.93;40.38;101085.69;6215899;22;45347;-85
2021/09/12 08:21:38;;;;;;;;;10.25;9.00;;;;;25.87;40.53;101080.63;6217362;22;45199;-85
2021/09/12 08:24:06;;;;;;;;;9.50;7.00;;;;;25.91;40.67;101092.06;6191609;22;45363;-85
2021/09/12 08:26:31;;;;;;;;;8.75;7.75;;;;;25.83;40.45;101084.41;6191790;22;46158;-86
2021/09/12 08:29:00;;;;;;;;;9.75;8.50;;;;;25.91;40.74;101086.69;6193921;22;45286;-85
2021/09/12 08:31:25;;;;;;;;;9.00;8.00;;;;;25.84;40.54;101079.91;6192060;22;45349;-84
2021/09/12 08:37:09;;;;;;;;;8.25;8.25;;;;;25.78;40.37;101075.72;6191340;22;45437;-85
2021/09/12 08:39:34;;;;;;;;;7.25;7.25;;;;;25.73;40.22;101060.88;6188558;22;45234;-85
2021/09/12 08:41:59;;;;;;;;;9.50;6.25;;;;;25.74;40.13;101074.16;6216504;22;45242;-86
2021/09/12 08:44:25;;;;;;;;;6.00;6.00;;;;;25.82;40.57;101087.16;6166202;22;45673;-86
2021/09/12 08:47:14;;;;;;;;;5.75;5.75;;;;;25.68;40.62;101063.72;6191396;22;45517;-84
2021/09/12 08:49:41;;;;;;;;;8.00;7.00;;;;;25.78;40.23;101077.53;6216298;22;45375;-85
2021/09/12 08:52:06;;;;;;;;;7.50;6.00;;;;;25.77;40.11;101079.34;6217773;22;45293;-84
2021/09/12 08:54:34;;;;;;;;;6.25;6.25;;;;;25.88;40.42;101086.84;6215301;22;45193;-85
2021/09/12 08:57:49;;;;;;;;;6.75;6.75;;;;;25.84;39.75;101071.91;6191080;22;46096;-85
2021/09/12 09:00:27;;;;;;;;;5.00;5.00;;;;;25.75;39.73;101061.66;6013163;23;45169;-86
2021/09/12 09:03:00;;;;;;;;;5.25;5.25;;;;;25.77;39.82;101060.63;6049804;23;45351;-84
2021/09/12 09:05:33;;;;;;;;;5.50;5.00;;;;;25.80;39.88;101060.50;6046606;23;45350;-85
2021/09/12 09:08:09;;;;;;;;;7.00;7.00;;;;;25.91;39.22;101070.66;6045418;23;47320;-84
2021/09/12 09:10:47;;;;;;;;;6.00;6.00;;;;;25.80;39.51;101052.47;6065854;22;45462;-85
2021/09/12 09:13:33;;;;;;;;;4.00;4.00;;;;;25.92;39.67;101075.94;6216115;22;45418;-86
2021/09/12 09:16:42;;;;;;;;;;;;;;;;;;;;;
2021/09/12 09:19:07;;;;;;;;;6.50;4.00;;;;;25.98;39.18;101081.94;6213471;22;75457;-84
2021/09/12 09:21:51;;;;;;;;;6.75;6.25;;;;;25.93;38.92;101072.31;6190661;22;45172;-86
2021/09/12 09:24:42;;;;;;;;;5.75;5.50;;;;;25.98;39.27;101080.13;6191725;22;45492;-85
2021/09/12 09:27:27;;;;;;;;;7.75;6.00;;;;;26.03;38.85;101079.88;6219821;22;45424;-85
2021/09/12 09:29:59;;;;;;;;;5.25;5.25;;;;;25.95;39.23;101055.31;6219401;22;47234;-85
2021/09/12 09:32:28;;;;;;;;;7.00;6.75;;;;;25.96;38.91;101057.03;6190715;22;45279;-84
2021/09/12 09:35:00;;;;;;;;;8.00;7.00;;;;;25.97;38.95;101059.63;6190997;22;45300;-84
2021/09/12 09:37:29;;;;;;;;;6.50;6.00;;;;;26.04;38.81;101070.91;6190541;22;45382;-86
2021/09/12 09:39:55;;;;;;;;;6.50;6.50;;;;;26.03;39.06;101062.00;6214555;22;47192;-85
2021/09/12 09:45:36;;;;;;;;;6.00;6.00;;;;;26.05;38.79;101067.28;6215826;22;45442;-86
2021/09/12 09:51:09;;;;;;;;;10.75;8.75;;;;;26.11;38.53;101069.66;6199426;22;45571;-86
2021/09/12 09:53:40;;;;;;;;;5.50;4.75;;;;;26.11;38.17;101066.97;6190130;22;45268;-86
2021/09/12 09:56:15;;;;;;;;;;;;;;;;;;;;;
2021/09/12 09:58:43;;;;;;;;;5.00;5.00;;;;;26.05;38.42;101045.88;6191550;22;72977;-86
2021/09/12 10:01:13;;;;;;;;;7.50;6.50;;;;;26.13;38.26;101059.75;6191059;22;48119;-86
2021/09/12 10:03:46;;;;;;;;;5.75;5.75;;;;;26.18;38.30;101066.59;6191726;22;45404;-85
2021/09/12 10:06:15;;;;;;;;;7.00;6.00;;;;;26.19;37.60;101065.66;6192166;22;45429;-87
2021/09/12 10:08:44;;;;;;;;;8.25;6.50;;;;;26.15;37.98;101055.16;6215833;22;45449;-85
2021/09/12 10:11:10;;;;;;;;;6.00;6.00;;;;;26.15;38.41;101057.84;6190055;22;47345;-87
2021/09/12 10:13:38;;;;;;;;;6.50;6.50;;;;;26.13;38.08;101049.91;6190501;22;45161;-87
2021/09/12 10:16:06;;;;;;;;;5.75;4.75;;;;;26.15;38.07;101052.50;6191170;22;45249;-85
2021/09/12 10:18:32;;;;;;;;;9.00;7.25;;;;;26.11;38.16;101026.84;6192371;22;45340;-86
2021/09/12 10:21:27;;;;;;;;;11.50;6.75;;;;;26.14;37.84;101050.75;6190178;22;47226;-87
2021/09/12 10:24:07;;;;;;;;;9.25;7.25;;;;;26.08;37.97;101033.25;6215676;22;45274;-87
2021/09/12 10:26:44;;;;;;;;;9.00;6.00;;;;;26.08;38.19;101041.25;6215955;22;45469;-86
2021/09/12 10:29:51;;;;;;;;;6.75;6.00;;;;;26.20;38.09;101053.13;6191070;22;45435;-86
2021/09/12 10:32:39;;;;;;;;;6.25;6.25;;;;;26.06;37.88;101026.22;6240643;22;47010;-85
2021/09/12 10:35:26;;;;;;;;;6.00;6.00;;;;;26.12;37.85;101025.91;6191828;22;45558;-86
2021/09/12 10:38:01;;;;;;;;;8.00;7.25;;;;;26.19;38.29;101038.03;6190084;22;45303;-85
2021/09/12 10:40:58;;;;;;;;;6.75;5.50;;;;;26.27;37.92;101041.19;6189197;22;45199;-85
2021/09/12 10:43:35;;;;;;;;;7.50;6.75;;;;;26.30;38.13;101040.16;6240922;22;47337;-85
2021/09/12 10:46:11;;;;;;;;;8.00;6.75;;;;;26.28;38.18;101040.25;6218431;22;45256;-85
2021/09/12 10:48:41;;;;;;;;;7.25;7.25;;;;;26.29;38.36;101036.63;6242231;22;45214;-85
2021/09/12 10:51:10;;;;;;;;;8.00;6.75;;;;;26.28;38.01;101032.22;6216416;22;45455;-86
2021/09/12 10:53:54;;;;;;;;;;;;;;;;;;;;;
2021/09/12 10:56:29;;;;;;;;;7.00;7.00;;;;;26.29;38.30;101043.78;6218305;22;72828;-87
2021/09/12 10:59:05;;;;;;;;;6.75;6.25;;;;;26.28;38.41;101036.69;6242288;22;45292;-86
2021/09/12 11:01:42;;;;;;;;;6.00;6.00;;;;;26.23;38.53;101028.03;6193894;22;45448;-86
2021/09/12 11:04:10;;;;;;;;;6.00;6.00;;;;;26.27;37.90;101035.84;6194077;22;48196;-87
2021/09/12 11:06:40;;;;;;;;;7.25;6.50;;;;;26.19;38.77;101016.63;6196009;22;45174;-87
2021/09/12 11:09:24;;;;;;;;;7.75;7.00;;;;;26.33;38.20;101034.66;6198548;22;45349;-87
2021/09/12 11:11:54;;;;;;;;;5.25;5.00;;;;;26.33;38.04;101026.63;6220751;22;45387;-87
2021/09/12 11:14:20;;;;;;;;;6.25;6.25;;;;;26.30;38.07;101022.28;6193671;22;46240;-88
2021/09/12 11:16:45;;;;;;;;;6.25;6.25;;;;;26.36;38.51;101031.81;6191232;22;45136;-87
2021/09/12 11:19:14;;;;;;;;;8.25;7.75;;;;;26.29;37.98;101015.19;6219236;22;45190;-87
2021/09/12 11:21:43;;;;;;;;;8.00;8.00;;;;;26.39;38.19;101037.91;6193382;22;45418;-86
2021/09/12 11:24:28;;;;;;;;;8.00;6.75;;;;;26.27;37.84;101010.88;6218746;22;47256;-86
2021/09/12 11:27:51;;;;;;;;;6.50;6.50;;;;;26.40;37.27;101028.91;6188658;22;45441;-86
2021/09/12 11:31:16;;;;;;;;;8.00;6.75;;;;;26.25;37.66;101000.28;6184931;22;45325;-86
2021/09/12 11:37:16;;;;;;;;;7.00;7.00;;;;;26.28;37.62;100996.56;6163152;22;45461;-85
2021/09/12 11:40:02;;;;;;;;;8.00;6.25;;;;;26.32;37.61;101009.69;6199449;22;45297;-86
2021/09/12 11:43:15;;;;;;;;;7.50;6.50;;;;;26.43;37.73;101017.22;6192112;22;45262;-86
2021/09/12 11:55:50;;;;;;;;;6.75;6.75;;;;;26.30;37.53;100978.59;6082693;22;45468;-86